sensor_id;sensor_type;location;lat;lon;timestamp;temperature;humidity
45319;DHT22;31057;48.498;32.260;2022-11-12T00:00:12;6.50;99.90
45319;DHT22;31057;48.498;32.260;2022-11-12T00:02:14;6.50;99.90
45319;DHT22;31057;48.498;32.260;2022-11-12T00:04:16;6.60;99.90
45319;DHT22;31057;48.498;32.260;2022-11-12T00:06:18;6.60;99.90
45319;DHT22;31057;48.498;32.260;2022-11-12T00:08:20;6.50;99.90
45319;DHT22;31057;48.498;32.260;2022-11-12T00:10:22;6.40;99.90
45319;DHT22;31057;48.498;32.260;2022-11-12T00:12:24;6.30;99.90
45319;DHT22;31057;48.498;32.260;2022-11-12T00:14:26;6.30;99.90
45319;DHT22;31057;48.498;32.260;2022-11-12T00:16:28;6.30;99.90
45319;DHT22;31057;48.498;32.260;2022-11-12T00:18:30;6.10;99.90
45319;DHT22;31057;48.498;32.260;2022-11-12T00:20:32;6.00;99.90
45319;DHT22;31057;48.498;32.260;2022-11-12T00:22:34;6.00;99.90
45319;DHT22;31057;48.498;32.260;2022-11-12T00:24:36;6.10;99.90
45319;DHT22;31057;48.498;32.260;2022-11-12T00:26:38;6.10;99.90
45319;DHT22;31057;48.498;32.260;2022-11-12T00:28:40;6.20;99.90
45319;DHT22;31057;48.498;32.260;2022-11-12T00:30:41;6.20;99.90
45319;DHT22;31057;48.498;32.260;2022-11-12T00:32:43;6.10;99.90
45319;DHT22;31057;48.498;32.260;2022-11-12T00:34:45;6.10;99.90
45319;DHT22;31057;48.498;32.260;2022-11-12T00:36:47;6.00;99.90
45319;DHT22;31057;48.498;32.260;2022-11-12T00:38:49;6.10;99.90
45319;DHT22;31057;48.498;32.260;2022-11-12T00:40:51;6.10;99.90
45319;DHT22;31057;48.498;32.260;2022-11-12T00:42:53;6.10;99.90
45319;DHT22;31057;48.498;32.260;2022-11-12T00:44:55;6.10;99.90
45319;DHT22;31057;48.498;32.260;2022-11-12T00:46:57;6.00;99.90
45319;DHT22;31057;48.498;32.260;2022-11-12T00:48:59;6.00;99.90
45319;DHT22;31057;48.498;32.260;2022-11-12T00:51:03;6.10;99.90
45319;DHT22;31057;48.498;32.260;2022-11-12T00:53:06;6.00;99.90
45319;DHT22;31057;48.498;32.260;2022-11-12T00:55:08;6.00;99.90
45319;DHT22;31057;48.498;32.260;2022-11-12T00:57:10;6.10;99.90
45319;DHT22;31057;48.498;32.260;2022-11-12T00:59:12;6.20;99.90
45319;DHT22;31057;48.498;32.260;2022-11-12T01:01:15;6.20;99.90
45319;DHT22;31057;48.498;32.260;2022-11-12T01:03:17;6.20;99.90
45319;DHT22;31057;48.498;32.260;2022-11-12T01:05:19;6.30;99.90
45319;DHT22;31057;48.498;32.260;2022-11-12T01:07:21;6.30;99.90
45319;DHT22;31057;48.498;32.260;2022-11-12T01:09:22;6.60;99.90
45319;DHT22;31057;48.498;32.260;2022-11-12T01:11:27;6.60;99.90
45319;DHT22;31057;48.498;32.260;2022-11-12T01:13:29;6.60;99.90
45319;DHT22;31057;48.498;32.260;2022-11-12T01:15:31;6.40;99.90
45319;DHT22;31057;48.498;32.260;2022-11-12T01:17:33;6.60;99.90
45319;DHT22;31057;48.498;32.260;2022-11-12T01:19:35;6.50;99.90
45319;DHT22;31057;48.498;32.260;2022-11-12T01:21:40;6.50;99.90
45319;DHT22;31057;48.498;32.260;2022-11-12T01:23:42;6.40;99.90
45319;DHT22;31057;48.498;32.260;2022-11-12T01:25:44;6.40;99.90
45319;DHT22;31057;48.498;32.260;2022-11-12T01:27:45;6.30;99.90
45319;DHT22;31057;48.498;32.260;2022-11-12T01:29:48;6.40;99.90
45319;DHT22;31057;48.498;32.260;2022-11-12T01:31:49;6.40;99.90
45319;DHT22;31057;48.498;32.260;2022-11-12T01:33:54;6.50;99.90
45319;DHT22;31057;48.498;32.260;2022-11-12T01:35:58;6.20;99.90
45319;DHT22;31057;48.498;32.260;2022-11-12T01:38:00;6.20;99.90
45319;DHT22;31057;48.498;32.260;2022-11-12T01:40:02;6.20;99.90
45319;DHT22;31057;48.498;32.260;2022-11-12T01:42:04;6.10;99.90
45319;DHT22;31057;48.498;32.260;2022-11-12T01:44:13;6.00;99.90
45319;DHT22;31057;48.498;32.260;2022-11-12T01:46:26;5.90;99.90
45319;DHT22;31057;48.498;32.260;2022-11-12T01:48:33;6.00;99.90
45319;DHT22;31057;48.498;32.260;2022-11-12T01:50:37;5.80;99.90
45319;DHT22;31057;48.498;32.260;2022-11-12T01:53:03;6.00;99.90
45319;DHT22;31057;48.498;32.260;2022-11-12T01:55:10;6.10;99.90
45319;DHT22;31057;48.498;32.260;2022-11-12T01:57:13;6.00;99.90
45319;DHT22;31057;48.498;32.260;2022-11-12T01:59:21;5.80;99.90
45319;DHT22;31057;48.498;32.260;2022-11-12T02:01:24;5.60;99.90
45319;DHT22;31057;48.498;32.260;2022-11-12T02:03:26;5.70;99.90
45319;DHT22;31057;48.498;32.260;2022-11-12T02:05:30;5.60;99.90
45319;DHT22;31057;48.498;32.260;2022-11-12T02:07:33;5.60;99.90
45319;DHT22;31057;48.498;32.260;2022-11-12T02:09:36;5.50;99.90
45319;DHT22;31057;48.498;32.260;2022-11-12T02:11:38;5.40;99.90
45319;DHT22;31057;48.498;32.260;2022-11-12T02:13:41;5.50;99.90
45319;DHT22;31057;48.498;32.260;2022-11-12T02:15:58;5.50;99.90
45319;DHT22;31057;48.498;32.260;2022-11-12T02:18:00;5.60;99.90
45319;DHT22;31057;48.498;32.260;2022-11-12T02:20:03;5.50;99.90
45319;DHT22;31057;48.498;32.260;2022-11-12T02:22:04;5.50;99.90
45319;DHT22;31057;48.498;32.260;2022-11-12T02:26:14;5.30;99.90
45319;DHT22;31057;48.498;32.260;2022-11-12T02:28:16;5.20;99.90
45319;DHT22;31057;48.498;32.260;2022-11-12T02:30:19;5.20;99.90
45319;DHT22;31057;48.498;32.260;2022-11-12T02:32:20;5.30;99.90
45319;DHT22;31057;48.498;32.260;2022-11-12T02:34:22;5.40;99.90
45319;DHT22;31057;48.498;32.260;2022-11-12T02:36:24;5.50;99.90
45319;DHT22;31057;48.498;32.260;2022-11-12T02:38:26;5.40;99.90
45319;DHT22;31057;48.498;32.260;2022-11-12T02:40:29;5.60;99.90
45319;DHT22;31057;48.498;32.260;2022-11-12T02:42:31;5.50;99.90
45319;DHT22;31057;48.498;32.260;2022-11-12T02:44:32;5.50;99.90
45319;DHT22;31057;48.498;32.260;2022-11-12T02:46:34;5.40;99.90
45319;DHT22;31057;48.498;32.260;2022-11-12T02:48:36;5.50;99.90
45319;DHT22;31057;48.498;32.260;2022-11-12T02:50:38;5.40;99.90
45319;DHT22;31057;48.498;32.260;2022-11-12T02:52:40;5.30;99.90
45319;DHT22;31057;48.498;32.260;2022-11-12T02:54:42;5.40;99.90
45319;DHT22;31057;48.498;32.260;2022-11-12T02:56:46;5.40;99.90
45319;DHT22;31057;48.498;32.260;2022-11-12T02:58:48;5.50;99.90
45319;DHT22;31057;48.498;32.260;2022-11-12T03:00:50;5.50;99.90
45319;DHT22;31057;48.498;32.260;2022-11-12T03:02:52;5.50;99.90
45319;DHT22;31057;48.498;32.260;2022-11-12T03:05:00;5.50;99.90
45319;DHT22;31057;48.498;32.260;2022-11-12T03:07:02;5.40;99.90
45319;DHT22;31057;48.498;32.260;2022-11-12T03:09:04;5.50;99.90
45319;DHT22;31057;48.498;32.260;2022-11-12T03:11:08;5.40;99.90
45319;DHT22;31057;48.498;32.260;2022-11-12T03:13:10;5.30;99.90
45319;DHT22;31057;48.498;32.260;2022-11-12T03:15:12;5.30;99.90
45319;DHT22;31057;48.498;32.260;2022-11-12T03:17:14;5.20;99.90
45319;DHT22;31057;48.498;32.260;2022-11-12T03:19:16;5.20;99.90
45319;DHT22;31057;48.498;32.260;2022-11-12T03:21:18;5.20;99.90
45319;DHT22;31057;48.498;32.260;2022-11-12T03:23:19;5.20;99.90
45319;DHT22;31057;48.498;32.260;2022-11-12T03:25:21;5.10;99.90
45319;DHT22;31057;48.498;32.260;2022-11-12T03:27:23;4.80;99.90
45319;DHT22;31057;48.498;32.260;2022-11-12T03:29:25;4.70;99.90
45319;DHT22;31057;48.498;32.260;2022-11-12T03:31:28;4.60;99.90
45319;DHT22;31057;48.498;32.260;2022-11-12T03:33:29;4.80;99.90
45319;DHT22;31057;48.498;32.260;2022-11-12T03:35:32;4.80;99.90
45319;DHT22;31057;48.498;32.260;2022-11-12T03:37:34;4.70;99.90
45319;DHT22;31057;48.498;32.260;2022-11-12T03:39:36;4.60;99.90
45319;DHT22;31057;48.498;32.260;2022-11-12T03:41:38;4.70;99.90
45319;DHT22;31057;48.498;32.260;2022-11-12T03:43:40;4.80;99.90
45319;DHT22;31057;48.498;32.260;2022-11-12T03:45:42;4.90;99.90
45319;DHT22;31057;48.498;32.260;2022-11-12T03:47:45;4.90;99.90
45319;DHT22;31057;48.498;32.260;2022-11-12T03:49:47;4.80;99.90
45319;DHT22;31057;48.498;32.260;2022-11-12T03:51:49;4.90;99.90
45319;DHT22;31057;48.498;32.260;2022-11-12T03:53:51;4.80;99.90
45319;DHT22;31057;48.498;32.260;2022-11-12T03:55:53;4.70;99.90
45319;DHT22;31057;48.498;32.260;2022-11-12T03:57:55;4.80;99.90
45319;DHT22;31057;48.498;32.260;2022-11-12T03:59:57;4.80;99.90
45319;DHT22;31057;48.498;32.260;2022-11-12T04:01:59;4.90;99.90
45319;DHT22;31057;48.498;32.260;2022-11-12T04:04:01;5.00;99.90
45319;DHT22;31057;48.498;32.260;2022-11-12T04:06:03;4.90;99.90
45319;DHT22;31057;48.498;32.260;2022-11-12T04:08:24;4.80;99.90
45319;DHT22;31057;48.498;32.260;2022-11-12T04:10:38;5.10;99.90
45319;DHT22;31057;48.498;32.260;2022-11-12T04:12:39;4.80;99.90
45319;DHT22;31057;48.498;32.260;2022-11-12T04:15:00;4.90;99.90
45319;DHT22;31057;48.498;32.260;2022-11-12T04:17:02;4.90;99.90
45319;DHT22;31057;48.498;32.260;2022-11-12T04:19:22;5.10;99.90
45319;DHT22;31057;48.498;32.260;2022-11-12T04:21:48;5.00;99.90
45319;DHT22;31057;48.498;32.260;2022-11-12T04:23:56;5.10;99.90
45319;DHT22;31057;48.498;32.260;2022-11-12T04:25:58;5.30;99.90
45319;DHT22;31057;48.498;32.260;2022-11-12T04:28:18;5.50;99.90
45319;DHT22;31057;48.498;32.260;2022-11-12T04:30:20;5.40;99.90
45319;DHT22;31057;48.498;32.260;2022-11-12T04:32:22;5.20;99.90
45319;DHT22;31057;48.498;32.260;2022-11-12T04:34:25;5.40;99.90
45319;DHT22;31057;48.498;32.260;2022-11-12T04:36:30;5.40;99.90
45319;DHT22;31057;48.498;32.260;2022-11-12T04:38:32;5.10;99.90
45319;DHT22;31057;48.498;32.260;2022-11-12T04:40:34;4.90;99.90
45319;DHT22;31057;48.498;32.260;2022-11-12T04:42:55;4.80;99.90
45319;DHT22;31057;48.498;32.260;2022-11-12T04:45:15;5.10;99.90
45319;DHT22;31057;48.498;32.260;2022-11-12T04:47:17;5.30;99.90
45319;DHT22;31057;48.498;32.260;2022-11-12T04:49:19;5.10;99.90
45319;DHT22;31057;48.498;32.260;2022-11-12T04:51:20;5.00;99.90
45319;DHT22;31057;48.498;32.260;2022-11-12T04:53:41;5.30;99.90
45319;DHT22;31057;48.498;32.260;2022-11-12T04:55:43;5.10;99.90
45319;DHT22;31057;48.498;32.260;2022-11-12T04:57:45;5.30;99.90
45319;DHT22;31057;48.498;32.260;2022-11-12T04:59:47;5.20;99.90
45319;DHT22;31057;48.498;32.260;2022-11-12T05:01:49;5.40;99.90
45319;DHT22;31057;48.498;32.260;2022-11-12T05:03:51;5.40;99.90
45319;DHT22;31057;48.498;32.260;2022-11-12T05:06:00;5.60;99.90
45319;DHT22;31057;48.498;32.260;2022-11-12T05:08:02;5.40;99.90
45319;DHT22;31057;48.498;32.260;2022-11-12T05:10:04;5.50;99.90
45319;DHT22;31057;48.498;32.260;2022-11-12T05:12:07;5.60;99.90
45319;DHT22;31057;48.498;32.260;2022-11-12T05:14:08;5.90;99.90
45319;DHT22;31057;48.498;32.260;2022-11-12T05:16:10;5.90;99.90
45319;DHT22;31057;48.498;32.260;2022-11-12T05:18:12;5.80;99.90
45319;DHT22;31057;48.498;32.260;2022-11-12T05:20:14;5.80;99.90
45319;DHT22;31057;48.498;32.260;2022-11-12T05:22:16;5.80;99.90
45319;DHT22;31057;48.498;32.260;2022-11-12T05:24:40;5.90;99.90
45319;DHT22;31057;48.498;32.260;2022-11-12T05:26:43;5.90;99.90
45319;DHT22;31057;48.498;32.260;2022-11-12T05:28:45;6.00;99.90
45319;DHT22;31057;48.498;32.260;2022-11-12T05:30:48;5.90;99.90
45319;DHT22;31057;48.498;32.260;2022-11-12T05:32:50;5.90;99.90
45319;DHT22;31057;48.498;32.260;2022-11-12T05:34:52;6.20;99.90
45319;DHT22;31057;48.498;32.260;2022-11-12T05:36:54;5.80;99.90
45319;DHT22;31057;48.498;32.260;2022-11-12T05:38:56;5.80;99.90
45319;DHT22;31057;48.498;32.260;2022-11-12T05:40:58;5.70;99.90
45319;DHT22;31057;48.498;32.260;2022-11-12T05:43:00;5.90;99.90
45319;DHT22;31057;48.498;32.260;2022-11-12T05:45:02;5.70;99.90
45319;DHT22;31057;48.498;32.260;2022-11-12T05:47:04;5.70;99.90
45319;DHT22;31057;48.498;32.260;2022-11-12T05:49:06;6.00;99.90
45319;DHT22;31057;48.498;32.260;2022-11-12T05:51:08;6.00;99.90
45319;DHT22;31057;48.498;32.260;2022-11-12T05:53:14;6.00;99.90
45319;DHT22;31057;48.498;32.260;2022-11-12T05:55:16;6.00;99.90
45319;DHT22;31057;48.498;32.260;2022-11-12T05:57:18;5.80;99.90
45319;DHT22;31057;48.498;32.260;2022-11-12T05:59:20;5.80;99.90
45319;DHT22;31057;48.498;32.260;2022-11-12T06:01:23;5.40;99.90
45319;DHT22;31057;48.498;32.260;2022-11-12T06:03:25;5.80;99.90
45319;DHT22;31057;48.498;32.260;2022-11-12T06:05:27;5.50;99.90
45319;DHT22;31057;48.498;32.260;2022-11-12T06:07:29;5.70;99.90
45319;DHT22;31057;48.498;32.260;2022-11-12T06:09:30;5.70;99.90
45319;DHT22;31057;48.498;32.260;2022-11-12T06:11:32;5.40;99.90
45319;DHT22;31057;48.498;32.260;2022-11-12T06:13:34;5.50;99.90
45319;DHT22;31057;48.498;32.260;2022-11-12T06:15:36;5.70;99.90
45319;DHT22;31057;48.498;32.260;2022-11-12T06:17:41;5.90;99.90
45319;DHT22;31057;48.498;32.260;2022-11-12T06:19:42;5.50;99.90
45319;DHT22;31057;48.498;32.260;2022-11-12T06:21:44;5.50;99.90
45319;DHT22;31057;48.498;32.260;2022-11-12T06:23:51;5.70;99.90
45319;DHT22;31057;48.498;32.260;2022-11-12T06:25:53;5.40;99.90
45319;DHT22;31057;48.498;32.260;2022-11-12T06:27:55;5.60;99.90
45319;DHT22;31057;48.498;32.260;2022-11-12T06:29:57;5.40;99.90
45319;DHT22;31057;48.498;32.260;2022-11-12T06:31:59;5.40;99.90
45319;DHT22;31057;48.498;32.260;2022-11-12T06:34:01;5.50;99.90
45319;DHT22;31057;48.498;32.260;2022-11-12T06:36:05;5.40;99.90
45319;DHT22;31057;48.498;32.260;2022-11-12T06:38:07;5.00;99.90
45319;DHT22;31057;48.498;32.260;2022-11-12T06:40:09;5.30;99.90
45319;DHT22;31057;48.498;32.260;2022-11-12T06:42:11;5.00;99.90
45319;DHT22;31057;48.498;32.260;2022-11-12T06:44:13;5.10;99.90
45319;DHT22;31057;48.498;32.260;2022-11-12T06:46:22;5.00;99.90
45319;DHT22;31057;48.498;32.260;2022-11-12T06:48:24;4.90;99.90
45319;DHT22;31057;48.498;32.260;2022-11-12T06:50:27;5.10;99.90
45319;DHT22;31057;48.498;32.260;2022-11-12T06:52:29;5.00;99.90
45319;DHT22;31057;48.498;32.260;2022-11-12T06:54:31;4.90;99.90
45319;DHT22;31057;48.498;32.260;2022-11-12T06:56:33;5.10;99.90
45319;DHT22;31057;48.498;32.260;2022-11-12T06:58:35;5.20;99.90
45319;DHT22;31057;48.498;32.260;2022-11-12T07:00:37;5.30;99.90
45319;DHT22;31057;48.498;32.260;2022-11-12T07:02:39;5.40;99.90
45319;DHT22;31057;48.498;32.260;2022-11-12T07:04:41;5.30;99.90
45319;DHT22;31057;48.498;32.260;2022-11-12T07:06:42;4.90;99.90
45319;DHT22;31057;48.498;32.260;2022-11-12T07:08:47;4.70;99.90
45319;DHT22;31057;48.498;32.260;2022-11-12T07:10:57;4.60;99.90
45319;DHT22;31057;48.498;32.260;2022-11-12T07:12:59;4.70;99.90
45319;DHT22;31057;48.498;32.260;2022-11-12T07:15:01;4.70;99.90
45319;DHT22;31057;48.498;32.260;2022-11-12T07:17:03;5.10;99.90
45319;DHT22;31057;48.498;32.260;2022-11-12T07:19:05;5.40;99.90
45319;DHT22;31057;48.498;32.260;2022-11-12T07:21:09;5.50;99.90
45319;DHT22;31057;48.498;32.260;2022-11-12T07:23:11;5.60;99.90
45319;DHT22;31057;48.498;32.260;2022-11-12T07:25:13;5.50;99.90
45319;DHT22;31057;48.498;32.260;2022-11-12T07:27:15;5.50;99.90
45319;DHT22;31057;48.498;32.260;2022-11-12T07:29:17;5.60;99.90
45319;DHT22;31057;48.498;32.260;2022-11-12T07:31:39;5.70;99.90
45319;DHT22;31057;48.498;32.260;2022-11-12T07:33:41;5.60;99.90
45319;DHT22;31057;48.498;32.260;2022-11-12T07:35:44;5.60;99.90
45319;DHT22;31057;48.498;32.260;2022-11-12T07:37:46;5.40;99.90
45319;DHT22;31057;48.498;32.260;2022-11-12T07:39:48;4.80;99.90
45319;DHT22;31057;48.498;32.260;2022-11-12T07:41:51;5.10;99.90
45319;DHT22;31057;48.498;32.260;2022-11-12T07:43:53;5.50;99.90
45319;DHT22;31057;48.498;32.260;2022-11-12T07:45:59;5.70;99.90
45319;DHT22;31057;48.498;32.260;2022-11-12T07:48:08;5.60;99.90
45319;DHT22;31057;48.498;32.260;2022-11-12T07:50:09;5.70;99.90
45319;DHT22;31057;48.498;32.260;2022-11-12T07:52:11;5.80;99.90
45319;DHT22;31057;48.498;32.260;2022-11-12T07:54:13;5.90;99.90
45319;DHT22;31057;48.498;32.260;2022-11-12T07:56:17;6.00;99.90
45319;DHT22;31057;48.498;32.260;2022-11-12T07:58:19;6.10;99.90
45319;DHT22;31057;48.498;32.260;2022-11-12T08:00:22;6.20;99.90
45319;DHT22;31057;48.498;32.260;2022-11-12T08:02:24;6.40;99.90
45319;DHT22;31057;48.498;32.260;2022-11-12T08:04:26;6.60;99.90
45319;DHT22;31057;48.498;32.260;2022-11-12T08:06:29;6.50;99.90
45319;DHT22;31057;48.498;32.260;2022-11-12T08:08:31;6.70;99.90
45319;DHT22;31057;48.498;32.260;2022-11-12T08:10:33;6.60;99.90
45319;DHT22;31057;48.498;32.260;2022-11-12T08:12:35;6.60;99.90
45319;DHT22;31057;48.498;32.260;2022-11-12T08:14:37;6.70;99.90
45319;DHT22;31057;48.498;32.260;2022-11-12T08:16:39;6.70;99.90
45319;DHT22;31057;48.498;32.260;2022-11-12T08:18:42;6.60;99.90
45319;DHT22;31057;48.498;32.260;2022-11-12T08:20:44;6.70;99.90
45319;DHT22;31057;48.498;32.260;2022-11-12T08:22:46;6.70;99.90
45319;DHT22;31057;48.498;32.260;2022-11-12T08:24:50;6.90;99.90
45319;DHT22;31057;48.498;32.260;2022-11-12T08:26:52;7.00;99.90
45319;DHT22;31057;48.498;32.260;2022-11-12T08:28:54;7.20;99.90
45319;DHT22;31057;48.498;32.260;2022-11-12T08:30:55;7.20;99.90
45319;DHT22;31057;48.498;32.260;2022-11-12T08:33:04;6.90;99.90
45319;DHT22;31057;48.498;32.260;2022-11-12T08:35:07;7.00;99.90
45319;DHT22;31057;48.498;32.260;2022-11-12T08:37:09;7.00;99.90
45319;DHT22;31057;48.498;32.260;2022-11-12T08:39:10;6.90;99.90
45319;DHT22;31057;48.498;32.260;2022-11-12T08:41:13;6.90;99.90
45319;DHT22;31057;48.498;32.260;2022-11-12T08:43:15;6.80;99.90
45319;DHT22;31057;48.498;32.260;2022-11-12T08:45:17;6.80;99.90
45319;DHT22;31057;48.498;32.260;2022-11-12T08:47:19;7.00;99.90
45319;DHT22;31057;48.498;32.260;2022-11-12T08:49:24;7.30;99.90
45319;DHT22;31057;48.498;32.260;2022-11-12T08:51:26;7.20;99.90
45319;DHT22;31057;48.498;32.260;2022-11-12T08:53:27;7.00;99.90
45319;DHT22;31057;48.498;32.260;2022-11-12T08:55:30;7.10;99.90
45319;DHT22;31057;48.498;32.260;2022-11-12T08:57:43;7.40;99.90
45319;DHT22;31057;48.498;32.260;2022-11-12T08:59:45;7.60;99.90
45319;DHT22;31057;48.498;32.260;2022-11-12T09:01:48;7.90;99.90
45319;DHT22;31057;48.498;32.260;2022-11-12T09:03:50;8.10;99.90
45319;DHT22;31057;48.498;32.260;2022-11-12T09:05:53;8.10;99.90
45319;DHT22;31057;48.498;32.260;2022-11-12T09:08:08;8.10;99.90
45319;DHT22;31057;48.498;32.260;2022-11-12T09:10:10;7.90;99.90
45319;DHT22;31057;48.498;32.260;2022-11-12T09:12:12;7.70;99.90
45319;DHT22;31057;48.498;32.260;2022-11-12T09:14:20;7.70;99.90
45319;DHT22;31057;48.498;32.260;2022-11-12T09:16:22;7.60;99.90
45319;DHT22;31057;48.498;32.260;2022-11-12T09:18:24;7.70;99.90
45319;DHT22;31057;48.498;32.260;2022-11-12T09:20:28;7.80;99.90
45319;DHT22;31057;48.498;32.260;2022-11-12T09:22:30;7.90;99.90
45319;DHT22;31057;48.498;32.260;2022-11-12T09:24:34;8.10;99.90
45319;DHT22;31057;48.498;32.260;2022-11-12T09:26:35;8.20;99.90
45319;DHT22;31057;48.498;32.260;2022-11-12T09:28:37;8.50;99.90
45319;DHT22;31057;48.498;32.260;2022-11-12T09:30:45;8.30;99.90
45319;DHT22;31057;48.498;32.260;2022-11-12T09:32:47;8.40;99.90
45319;DHT22;31057;48.498;32.260;2022-11-12T09:34:49;8.60;99.90
45319;DHT22;31057;48.498;32.260;2022-11-12T09:36:51;8.80;99.90
45319;DHT22;31057;48.498;32.260;2022-11-12T09:38:53;9.00;99.90
45319;DHT22;31057;48.498;32.260;2022-11-12T09:41:19;9.10;99.90
45319;DHT22;31057;48.498;32.260;2022-11-12T09:43:44;9.20;99.90
45319;DHT22;31057;48.498;32.260;2022-11-12T09:45:49;9.40;99.90
45319;DHT22;31057;48.498;32.260;2022-11-12T09:48:38;9.50;99.90
45319;DHT22;31057;48.498;32.260;2022-11-12T09:50:58;9.80;99.90
45319;DHT22;31057;48.498;32.260;2022-11-12T09:53:14;9.90;99.90
45319;DHT22;31057;48.498;32.260;2022-11-12T09:55:42;9.90;99.90
45319;DHT22;31057;48.498;32.260;2022-11-12T09:57:42;10.20;99.90
45319;DHT22;31057;48.498;32.260;2022-11-12T09:59:44;10.30;99.90
45319;DHT22;31057;48.498;32.260;2022-11-12T10:06:06;10.40;99.90
45319;DHT22;31057;48.498;32.260;2022-11-12T10:20:41;10.70;99.90
45319;DHT22;31057;48.498;32.260;2022-11-12T10:23:17;10.70;99.90
45319;DHT22;31057;48.498;32.260;2022-11-12T10:25:19;10.70;99.90
45319;DHT22;31057;48.498;32.260;2022-11-12T10:27:23;10.80;99.90
45319;DHT22;31057;48.498;32.260;2022-11-12T10:29:37;10.80;99.90
45319;DHT22;31057;48.498;32.260;2022-11-12T10:31:41;10.80;99.90
45319;DHT22;31057;48.498;32.260;2022-11-12T10:33:43;11.00;99.90
45319;DHT22;31057;48.498;32.260;2022-11-12T10:35:45;11.10;99.90
45319;DHT22;31057;48.498;32.260;2022-11-12T10:38:00;11.10;99.90
45319;DHT22;31057;48.498;32.260;2022-11-12T10:40:26;11.20;99.90
45319;DHT22;31057;48.498;32.260;2022-11-12T10:42:28;11.60;99.90
45319;DHT22;31057;48.498;32.260;2022-11-12T10:44:30;11.30;99.90
45319;DHT22;31057;48.498;32.260;2022-11-12T10:46:35;11.20;99.90
45319;DHT22;31057;48.498;32.260;2022-11-12T10:48:37;11.20;99.90
45319;DHT22;31057;48.498;32.260;2022-11-12T10:50:41;11.30;99.90
45319;DHT22;31057;48.498;32.260;2022-11-12T10:52:59;11.10;99.90
45319;DHT22;31057;48.498;32.260;2022-11-12T10:55:25;11.30;99.90
45319;DHT22;31057;48.498;32.260;2022-11-12T10:57:27;11.30;99.90
45319;DHT22;31057;48.498;32.260;2022-11-12T10:59:29;11.50;99.90
45319;DHT22;31057;48.498;32.260;2022-11-12T11:01:33;11.60;99.90
45319;DHT22;31057;48.498;32.260;2022-11-12T11:03:45;11.50;99.90
45319;DHT22;31057;48.498;32.260;2022-11-12T11:08:38;11.50;99.90
45319;DHT22;31057;48.498;32.260;2022-11-12T11:10:40;11.50;99.90
45319;DHT22;31057;48.498;32.260;2022-11-12T11:12:42;11.50;99.90
45319;DHT22;31057;48.498;32.260;2022-11-12T11:14:44;11.60;99.90
45319;DHT22;31057;48.498;32.260;2022-11-12T11:17:05;11.50;99.90
45319;DHT22;31057;48.498;32.260;2022-11-12T11:19:09;11.50;99.90
45319;DHT22;31057;48.498;32.260;2022-11-12T11:23:54;11.50;99.90
45319;DHT22;31057;48.498;32.260;2022-11-12T11:25:53;11.50;99.90
45319;DHT22;31057;48.498;32.260;2022-11-12T11:30:21;11.60;99.90
45319;DHT22;31057;48.498;32.260;2022-11-12T11:39:54;11.60;99.90
45319;DHT22;31057;48.498;32.260;2022-11-12T11:41:53;11.60;99.90
45319;DHT22;31057;48.498;32.260;2022-11-12T11:44:13;11.60;99.90
45319;DHT22;31057;48.498;32.260;2022-11-12T11:56:02;11.70;99.90
45319;DHT22;31057;48.498;32.260;2022-11-12T12:00:21;11.60;99.90
45319;DHT22;31057;48.498;32.260;2022-11-12T12:05:09;11.60;99.90
45319;DHT22;31057;48.498;32.260;2022-11-12T12:07:28;11.50;99.90
45319;DHT22;31057;48.498;32.260;2022-11-12T12:14:40;11.60;99.90
45319;DHT22;31057;48.498;32.260;2022-11-12T12:21:21;11.60;99.90
45319;DHT22;31057;48.498;32.260;2022-11-12T12:24:47;11.50;99.90
45319;DHT22;31057;48.498;32.260;2022-11-12T12:26:23;11.50;99.90
45319;DHT22;31057;48.498;32.260;2022-11-12T12:30:30;11.50;99.90
45319;DHT22;31057;48.498;32.260;2022-11-12T12:32:49;11.50;99.90
45319;DHT22;31057;48.498;32.260;2022-11-12T12:35:22;11.50;99.90
45319;DHT22;31057;48.498;32.260;2022-11-12T12:37:52;11.50;99.90
45319;DHT22;31057;48.498;32.260;2022-11-12T12:40:34;11.60;99.90
45319;DHT22;31057;48.498;32.260;2022-11-12T12:42:51;11.70;99.90
45319;DHT22;31057;48.498;32.260;2022-11-12T12:45:01;11.70;99.90
45319;DHT22;31057;48.498;32.260;2022-11-12T12:47:09;11.80;99.90
45319;DHT22;31057;48.498;32.260;2022-11-12T12:49:16;11.80;99.90
45319;DHT22;31057;48.498;32.260;2022-11-12T12:51:20;11.80;99.90
45319;DHT22;31057;48.498;32.260;2022-11-12T12:55:49;11.80;99.90
45319;DHT22;31057;48.498;32.260;2022-11-12T12:57:58;11.70;99.90
45319;DHT22;31057;48.498;32.260;2022-11-12T13:02:36;11.60;99.90
45319;DHT22;31057;48.498;32.260;2022-11-12T13:04:56;11.50;99.90
45319;DHT22;31057;48.498;32.260;2022-11-12T13:06:59;11.50;99.90
45319;DHT22;31057;48.498;32.260;2022-11-12T13:09:05;11.50;99.90
45319;DHT22;31057;48.498;32.260;2022-11-12T13:11:08;11.50;99.90
45319;DHT22;31057;48.498;32.260;2022-11-12T13:15:41;11.50;99.90
45319;DHT22;31057;48.498;32.260;2022-11-12T13:17:46;11.40;99.90
45319;DHT22;31057;48.498;32.260;2022-11-12T13:29:46;11.20;99.90
45319;DHT22;31057;48.498;32.260;2022-11-12T13:31:48;11.20;99.90
45319;DHT22;31057;48.498;32.260;2022-11-12T13:33:51;11.20;99.90
45319;DHT22;31057;48.498;32.260;2022-11-12T13:36:22;11.00;99.90
45319;DHT22;31057;48.498;32.260;2022-11-12T13:38:26;10.90;99.90
45319;DHT22;31057;48.498;32.260;2022-11-12T13:42:30;10.90;99.90
45319;DHT22;31057;48.498;32.260;2022-11-12T13:44:51;10.90;99.90
45319;DHT22;31057;48.498;32.260;2022-11-12T13:46:56;10.80;99.90
45319;DHT22;31057;48.498;32.260;2022-11-12T13:51:05;10.70;99.90
45319;DHT22;31057;48.498;32.260;2022-11-12T13:53:09;10.70;99.90
45319;DHT22;31057;48.498;32.260;2022-11-12T13:55:18;10.60;99.90
45319;DHT22;31057;48.498;32.260;2022-11-12T13:59:25;10.40;99.90
45319;DHT22;31057;48.498;32.260;2022-11-12T14:01:27;10.40;99.90
45319;DHT22;31057;48.498;32.260;2022-11-12T14:05:46;10.40;99.90
45319;DHT22;31057;48.498;32.260;2022-11-12T14:13:02;10.00;99.90
45319;DHT22;31057;48.498;32.260;2022-11-12T14:22:14;9.70;99.90
45319;DHT22;31057;48.498;32.260;2022-11-12T14:24:17;9.60;99.90
45319;DHT22;31057;48.498;32.260;2022-11-12T14:26:40;9.50;99.90
45319;DHT22;31057;48.498;32.260;2022-11-12T14:28:42;9.40;99.90
45319;DHT22;31057;48.498;32.260;2022-11-12T14:30:44;9.40;99.90
45319;DHT22;31057;48.498;32.260;2022-11-12T14:32:52;9.40;99.90
45319;DHT22;31057;48.498;32.260;2022-11-12T14:34:54;9.30;99.90
45319;DHT22;31057;48.498;32.260;2022-11-12T14:36:57;9.20;99.90
45319;DHT22;31057;48.498;32.260;2022-11-12T14:38:59;9.20;99.90
45319;DHT22;31057;48.498;32.260;2022-11-12T14:41:06;9.20;99.90
45319;DHT22;31057;48.498;32.260;2022-11-12T14:43:40;9.10;99.90
45319;DHT22;31057;48.498;32.260;2022-11-12T14:45:52;9.00;99.90